sensor_id;sensor_type;location;lat;lon;timestamp;pressure;altitude;pressure_sealevel;temperature;humidity
50292;BME280;36190;54.980;73.388;2023-04-10T00:01:34;100216.19;;;1.78;64.76
50292;BME280;36190;54.980;73.388;2023-04-10T00:04:03;100215.47;;;1.76;64.66
50292;BME280;36190;54.980;73.388;2023-04-10T00:06:31;100206.84;;;1.74;64.60
50292;BME280;36190;54.980;73.388;2023-04-10T00:08:59;100198.25;;;1.72;64.71
50292;BME280;36190;54.980;73.388;2023-04-10T00:11:26;100195.59;;;1.72;64.68
50292;BME280;36190;54.980;73.388;2023-04-10T00:13:55;100201.81;;;1.71;64.61
50292;BME280;36190;54.980;73.388;2023-04-10T00:16:23;100201.81;;;1.71;64.56
50292;BME280;36190;54.980;73.388;2023-04-10T00:18:50;100193.22;;;1.69;64.47
50292;BME280;36190;54.980;73.388;2023-04-10T00:21:18;100198.47;;;1.69;64.54
50292;BME280;36190;54.980;73.388;2023-04-10T00:23:45;100183.75;;;1.66;64.43
50292;BME280;36190;54.980;73.388;2023-04-10T00:26:12;100181.84;;;1.68;64.39
50292;BME280;36190;54.980;73.388;2023-04-10T00:28:40;100191.56;;;1.68;64.34
50292;BME280;36190;54.980;73.388;2023-04-10T00:31:09;100178.25;;;1.69;64.36
50292;BME280;36190;54.980;73.388;2023-04-10T00:33:36;100171.31;;;1.68;64.28
50292;BME280;36190;54.980;73.388;2023-04-10T00:36:04;100168.59;;;1.70;64.31
50292;BME280;36190;54.980;73.388;2023-04-10T00:38:31;100162.25;;;1.72;64.05
50292;BME280;36190;54.980;73.388;2023-04-10T00:40:59;100161.16;;;1.75;64.04
50292;BME280;36190;54.980;73.388;2023-04-10T00:43:26;100152.34;;;1.76;63.75
50292;BME280;36190;54.980;73.388;2023-04-10T00:45:54;100147.44;;;1.83;63.74
50292;BME280;36190;54.980;73.388;2023-04-10T00:48:23;100146.50;;;1.84;63.64
50292;BME280;36190;54.980;73.388;2023-04-10T00:50:50;100153.06;;;1.89;63.52
50292;BME280;36190;54.980;73.388;2023-04-10T00:53:18;100140.63;;;1.91;63.48
50292;BME280;36190;54.980;73.388;2023-04-10T00:55:46;100140.16;;;1.98;63.41
50292;BME280;36190;54.980;73.388;2023-04-10T00:58:14;100143.16;;;2.04;63.43
50292;BME280;36190;54.980;73.388;2023-04-10T01:00:41;100130.59;;;2.08;62.97
50292;BME280;36190;54.980;73.388;2023-04-10T01:03:10;100128.19;;;2.05;62.72
50292;BME280;36190;54.980;73.388;2023-04-10T01:05:42;100129.66;;;2.09;62.72
50292;BME280;36190;54.980;73.388;2023-04-10T01:08:16;100127.03;;;2.09;62.62
50292;BME280;36190;54.980;73.388;2023-04-10T01:10:53;100124.25;;;2.11;62.51
50292;BME280;36190;54.980;73.388;2023-04-10T01:13:27;100117.41;;;2.08;62.19
50292;BME280;36190;54.980;73.388;2023-04-10T01:16:01;100116.84;;;2.16;62.22
50292;BME280;36190;54.980;73.388;2023-04-10T01:18:36;100117.44;;;2.19;61.85
50292;BME280;36190;54.980;73.388;2023-04-10T01:21:10;100119.09;;;2.20;62.07
50292;BME280;36190;54.980;73.388;2023-04-10T01:23:51;100118.84;;;2.24;61.71
50292;BME280;36190;54.980;73.388;2023-04-10T01:26:35;100111.78;;;2.36;61.58
50292;BME280;36190;54.980;73.388;2023-04-10T01:29:08;100102.91;;;2.37;61.34
50292;BME280;36190;54.980;73.388;2023-04-10T01:31:38;100101.84;;;2.39;61.31
50292;BME280;36190;54.980;73.388;2023-04-10T01:34:11;100080.69;;;2.29;60.86
50292;BME280;36190;54.980;73.388;2023-04-10T01:36:48;100094.91;;;2.38;61.07
50292;BME280;36190;54.980;73.388;2023-04-10T01:39:18;100095.63;;;2.40;60.87
50292;BME280;36190;54.980;73.388;2023-04-10T01:41:47;100083.78;;;2.34;60.58
50292;BME280;36190;54.980;73.388;2023-04-10T01:44:21;100073.50;;;2.31;60.53
50292;BME280;36190;54.980;73.388;2023-04-10T01:46:51;100078.88;;;2.41;60.56
50292;BME280;36190;54.980;73.388;2023-04-10T01:49:19;100084.50;;;2.48;60.53
50292;BME280;36190;54.980;73.388;2023-04-10T01:51:48;100087.72;;;2.52;60.29
50292;BME280;36190;54.980;73.388;2023-04-10T01:54:19;100092.72;;;2.55;59.91
50292;BME280;36190;54.980;73.388;2023-04-10T01:56:47;100092.84;;;2.53;59.84
50292;BME280;36190;54.980;73.388;2023-04-10T01:59:14;100088.16;;;2.57;59.76
50292;BME280;36190;54.980;73.388;2023-04-10T02:01:43;100079.31;;;2.58;59.65
50292;BME280;36190;54.980;73.388;2023-04-10T02:04:11;100077.41;;;2.60;59.55
50292;BME280;36190;54.980;73.388;2023-04-10T02:06:43;100085.63;;;2.67;59.52
50292;BME280;36190;54.980;73.388;2023-04-10T02:09:19;100066.09;;;2.69;59.03
50292;BME280;36190;54.980;73.388;2023-04-10T02:11:53;100068.84;;;2.79;59.07
50292;BME280;36190;54.980;73.388;2023-04-10T02:14:24;100065.81;;;2.84;58.78
50292;BME280;36190;54.980;73.388;2023-04-10T02:16:56;100057.38;;;2.90;58.56
50292;BME280;36190;54.980;73.388;2023-04-10T02:19:26;100055.22;;;2.95;58.61
50292;BME280;36190;54.980;73.388;2023-04-10T02:21:54;100055.53;;;3.02;58.43
50292;BME280;36190;54.980;73.388;2023-04-10T02:24:22;100054.34;;;3.06;58.21
50292;BME280;36190;54.980;73.388;2023-04-10T02:26:51;100042.81;;;3.07;58.24
50292;BME280;36190;54.980;73.388;2023-04-10T02:29:19;100035.97;;;3.16;58.03
50292;BME280;36190;54.980;73.388;2023-04-10T02:31:48;100032.59;;;3.14;57.90
50292;BME280;36190;54.980;73.388;2023-04-10T02:34:17;100028.47;;;3.21;58.07
50292;BME280;36190;54.980;73.388;2023-04-10T02:36:45;100013.81;;;3.28;57.74
50292;BME280;36190;54.980;73.388;2023-04-10T02:39:12;100008.53;;;3.28;57.65
50292;BME280;36190;54.980;73.388;2023-04-10T02:41:40;100004.41;;;3.36;57.62
50292;BME280;36190;54.980;73.388;2023-04-10T02:44:07;100001.84;;;3.46;57.41
50292;BME280;36190;54.980;73.388;2023-04-10T02:46:34;100006.44;;;3.53;57.17
50292;BME280;36190;54.980;73.388;2023-04-10T02:49:02;99998.56;;;3.63;57.08
50292;BME280;36190;54.980;73.388;2023-04-10T02:51:33;99986.41;;;3.72;56.94
50292;BME280;36190;54.980;73.388;2023-04-10T02:54:01;99993.22;;;3.84;56.66
50292;BME280;36190;54.980;73.388;2023-04-10T02:56:29;99989.22;;;3.90;56.52
50292;BME280;36190;54.980;73.388;2023-04-10T02:58:59;99982.56;;;3.96;56.47
50292;BME280;36190;54.980;73.388;2023-04-10T03:01:27;99978.00;;;4.08;56.32
50292;BME280;36190;54.980;73.388;2023-04-10T03:03:56;99977.19;;;4.17;56.25
50292;BME280;36190;54.980;73.388;2023-04-10T03:06:24;99971.34;;;4.23;56.05
50292;BME280;36190;54.980;73.388;2023-04-10T03:08:53;99967.88;;;4.23;55.81
50292;BME280;36190;54.980;73.388;2023-04-10T03:11:21;99972.88;;;4.26;55.90
50292;BME280;36190;54.980;73.388;2023-04-10T03:13:48;99948.56;;;4.32;55.76
50292;BME280;36190;54.980;73.388;2023-04-10T03:16:16;99948.28;;;4.35;55.77
50292;BME280;36190;54.980;73.388;2023-04-10T03:18:44;99950.50;;;4.40;55.71
50292;BME280;36190;54.980;73.388;2023-04-10T03:21:11;99951.78;;;4.46;55.56
50292;BME280;36190;54.980;73.388;2023-04-10T03:23:39;99952.19;;;4.51;55.35
50292;BME280;36190;54.980;73.388;2023-04-10T03:26:07;99944.69;;;4.56;55.43
50292;BME280;36190;54.980;73.388;2023-04-10T03:28:36;99949.25;;;4.64;55.23
50292;BME280;36190;54.980;73.388;2023-04-10T03:31:05;99947.16;;;4.67;54.76
50292;BME280;36190;54.980;73.388;2023-04-10T03:33:32;99924.06;;;4.70;55.04
50292;BME280;36190;54.980;73.388;2023-04-10T03:36:00;99932.41;;;4.75;54.68
50292;BME280;36190;54.980;73.388;2023-04-10T03:38:27;99945.75;;;4.83;54.71
50292;BME280;36190;54.980;73.388;2023-04-10T03:40:55;99932.94;;;4.88;54.57
50292;BME280;36190;54.980;73.388;2023-04-10T03:43:24;99922.09;;;4.91;54.44
50292;BME280;36190;54.980;73.388;2023-04-10T03:45:51;99937.66;;;4.94;54.27
50292;BME280;36190;54.980;73.388;2023-04-10T03:48:19;99928.75;;;4.95;54.52
50292;BME280;36190;54.980;73.388;2023-04-10T03:50:46;99927.34;;;5.01;54.43
50292;BME280;36190;54.980;73.388;2023-04-10T03:53:14;99920.66;;;5.07;54.23
50292;BME280;36190;54.980;73.388;2023-04-10T03:55:41;99926.63;;;5.09;54.17
50292;BME280;36190;54.980;73.388;2023-04-10T03:58:09;99918.41;;;5.12;54.05
50292;BME280;36190;54.980;73.388;2023-04-10T04:00:38;99918.13;;;5.15;54.13
50292;BME280;36190;54.980;73.388;2023-04-10T04:03:06;99912.81;;;5.25;54.06
50292;BME280;36190;54.980;73.388;2023-04-10T04:05:34;99903.69;;;5.37;54.04
50292;BME280;36190;54.980;73.388;2023-04-10T04:08:02;99909.63;;;5.49;53.68
50292;BME280;36190;54.980;73.388;2023-04-10T04:10:31;99900.97;;;5.57;53.54
50292;BME280;36190;54.980;73.388;2023-04-10T04:12:59;99906.72;;;5.71;53.46
50292;BME280;36190;54.980;73.388;2023-04-10T04:15:26;99902.22;;;5.81;53.37
50292;BME280;36190;54.980;73.388;2023-04-10T04:17:56;99904.09;;;5.89;53.15
50292;BME280;36190;54.980;73.388;2023-04-10T04:20:25;99909.09;;;5.92;53.08
50292;BME280;36190;54.980;73.388;2023-04-10T04:22:52;99914.09;;;5.95;53.00
50292;BME280;36190;54.980;73.388;2023-04-10T04:25:20;99907.69;;;5.98;53.06
50292;BME280;36190;54.980;73.388;2023-04-10T04:27:47;99899.88;;;5.96;52.95
50292;BME280;36190;54.980;73.388;2023-04-10T04:30:15;99897.91;;;5.98;52.94
50292;BME280;36190;54.980;73.388;2023-04-10T04:32:42;99897.19;;;6.06;52.85
50292;BME280;36190;54.980;73.388;2023-04-10T04:35:11;99894.53;;;6.06;52.43
50292;BME280;36190;54.980;73.388;2023-04-10T04:37:39;99883.53;;;6.01;52.50
50292;BME280;36190;54.980;73.388;2023-04-10T04:40:07;99870.59;;;5.98;52.57
50292;BME280;36190;54.980;73.388;2023-04-10T04:42:34;99877.81;;;6.05;52.84
50292;BME280;36190;54.980;73.388;2023-04-10T04:45:02;99886.16;;;6.11;52.33
50292;BME280;36190;54.980;73.388;2023-04-10T04:47:30;99870.25;;;6.11;52.14
50292;BME280;36190;54.980;73.388;2023-04-10T04:49:57;99865.16;;;6.17;52.24
50292;BME280;36190;54.980;73.388;2023-04-10T04:52:26;99880.28;;;6.25;52.01
50292;BME280;36190;54.980;73.388;2023-04-10T04:54:54;99867.13;;;6.33;51.95
50292;BME280;36190;54.980;73.388;2023-04-10T04:57:21;99861.91;;;6.42;51.95
50292;BME280;36190;54.980;73.388;2023-04-10T04:59:49;99835.22;;;6.43;52.00
50292;BME280;36190;54.980;73.388;2023-04-10T05:02:16;99860.22;;;6.67;51.92
50292;BME280;36190;54.980;73.388;2023-04-10T05:04:44;99864.91;;;6.73;51.75
50292;BME280;36190;54.980;73.388;2023-04-10T05:07:12;99859.81;;;6.80;51.60
50292;BME280;36190;54.980;73.388;2023-04-10T05:09:41;99861.00;;;6.86;51.39
50292;BME280;36190;54.980;73.388;2023-04-10T05:12:08;99856.59;;;6.95;51.32
50292;BME280;36190;54.980;73.388;2023-04-10T05:14:36;99858.44;;;7.02;51.18
50292;BME280;36190;54.980;73.388;2023-04-10T05:17:03;99835.25;;;7.05;51.05
50292;BME280;36190;54.980;73.388;2023-04-10T05:19:30;99827.44;;;7.03;51.00
50292;BME280;36190;54.980;73.388;2023-04-10T05:21:58;99844.06;;;7.13;50.97
50292;BME280;36190;54.980;73.388;2023-04-10T05:24:25;99831.53;;;7.24;50.72
50292;BME280;36190;54.980;73.388;2023-04-10T05:26:54;99812.16;;;7.40;50.57
50292;BME280;36190;54.980;73.388;2023-04-10T05:29:22;99816.19;;;7.52;50.39
50292;BME280;36190;54.980;73.388;2023-04-10T05:31:50;99811.34;;;7.56;50.61
50292;BME280;36190;54.980;73.388;2023-04-10T05:34:18;99799.78;;;7.65;50.30
50292;BME280;36190;54.980;73.388;2023-04-10T05:36:45;99820.34;;;7.71;50.17
50292;BME280;36190;54.980;73.388;2023-04-10T05:39:13;99796.28;;;7.73;50.06
50292;BME280;36190;54.980;73.388;2023-04-10T05:41:41;99798.44;;;7.78;49.58
50292;BME280;36190;54.980;73.388;2023-04-10T05:44:10;99792.81;;;7.81;49.76
50292;BME280;36190;54.980;73.388;2023-04-10T05:46:37;99792.16;;;7.87;49.70
50292;BME280;36190;54.980;73.388;2023-04-10T05:49:05;99784.88;;;7.97;49.60
50292;BME280;36190;54.980;73.388;2023-04-10T05:51:32;99778.84;;;8.12;49.52
50292;BME280;36190;54.980;73.388;2023-04-10T05:54:00;99775.38;;;8.20;49.40
50292;BME280;36190;54.980;73.388;2023-04-10T05:56:27;99780.69;;;8.28;49.21
50292;BME280;36190;54.980;73.388;2023-04-10T05:58:55;99789.97;;;8.32;49.26
50292;BME280;36190;54.980;73.388;2023-04-10T06:01:24;99778.66;;;8.38;49.29
50292;BME280;36190;54.980;73.388;2023-04-10T06:03:51;99783.16;;;8.38;48.85
50292;BME280;36190;54.980;73.388;2023-04-10T06:06:19;99767.69;;;8.33;48.86
50292;BME280;36190;54.980;73.388;2023-04-10T06:08:47;99768.19;;;8.37;48.92
50292;BME280;36190;54.980;73.388;2023-04-10T06:11:14;99761.19;;;8.44;48.57
50292;BME280;36190;54.980;73.388;2023-04-10T06:13:42;99771.16;;;8.50;48.67
50292;BME280;36190;54.980;73.388;2023-04-10T06:16:09;99726.97;;;8.49;48.59
50292;BME280;36190;54.980;73.388;2023-04-10T06:18:38;99742.75;;;8.59;48.63
50292;BME280;36190;54.980;73.388;2023-04-10T06:21:06;99743.75;;;8.66;48.03
50292;BME280;36190;54.980;73.388;2023-04-10T06:23:34;99728.59;;;8.67;47.42
50292;BME280;36190;54.980;73.388;2023-04-10T06:26:02;99752.53;;;8.67;47.31
50292;BME280;36190;54.980;73.388;2023-04-10T06:28:29;99746.56;;;8.65;47.60
50292;BME280;36190;54.980;73.388;2023-04-10T06:30:57;99719.81;;;8.66;47.51
50292;BME280;36190;54.980;73.388;2023-04-10T06:33:27;99724.59;;;8.71;47.31
50292;BME280;36190;54.980;73.388;2023-04-10T06:35:57;99709.94;;;8.75;47.02
50292;BME280;36190;54.980;73.388;2023-04-10T06:38:25;99716.59;;;8.79;47.04
50292;BME280;36190;54.980;73.388;2023-04-10T06:40:53;99695.78;;;8.83;46.94
50292;BME280;36190;54.980;73.388;2023-04-10T06:43:20;99694.97;;;8.83;46.97
50292;BME280;36190;54.980;73.388;2023-04-10T06:45:50;99681.09;;;8.96;47.08
50292;BME280;36190;54.980;73.388;2023-04-10T06:48:23;99718.44;;;9.02;46.48
50292;BME280;36190;54.980;73.388;2023-04-10T06:50:50;99707.16;;;9.00;46.09
50292;BME280;36190;54.980;73.388;2023-04-10T06:53:19;99680.72;;;8.99;46.01
50292;BME280;36190;54.980;73.388;2023-04-10T06:55:47;99678.00;;;9.07;45.79
50292;BME280;36190;54.980;73.388;2023-04-10T06:58:14;99681.16;;;9.11;45.36
50292;BME280;36190;54.980;73.388;2023-04-10T07:00:42;99694.66;;;9.09;45.06
50292;BME280;36190;54.980;73.388;2023-04-10T07:03:10;99683.16;;;9.08;45.03
50292;BME280;36190;54.980;73.388;2023-04-10T07:05:38;99680.66;;;9.07;45.15
50292;BME280;36190;54.980;73.388;2023-04-10T07:08:05;99642.06;;;9.11;45.39
50292;BME280;36190;54.980;73.388;2023-04-10T07:10:35;99659.63;;;9.20;45.57
50292;BME280;36190;54.980;73.388;2023-04-10T07:13:02;99654.41;;;9.27;45.38
50292;BME280;36190;54.980;73.388;2023-04-10T07:15:29;99637.75;;;9.33;45.30
50292;BME280;36190;54.980;73.388;2023-04-10T07:17:57;99628.97;;;9.48;45.50
50292;BME280;36190;54.980;73.388;2023-04-10T07:20:24;99628.34;;;9.61;45.15
50292;BME280;36190;54.980;73.388;2023-04-10T07:22:52;99622.06;;;9.77;44.55
50292;BME280;36190;54.980;73.388;2023-04-10T07:25:20;99610.41;;;9.93;44.46
50292;BME280;36190;54.980;73.388;2023-04-10T07:27:49;99637.03;;;10.08;44.13
50292;BME280;36190;54.980;73.388;2023-04-10T07:30:17;99618.94;;;10.18;44.18
50292;BME280;36190;54.980;73.388;2023-04-10T07:32:45;99614.72;;;10.24;43.89
50292;BME280;36190;54.980;73.388;2023-04-10T07:35:12;99610.00;;;10.26;43.82
50292;BME280;36190;54.980;73.388;2023-04-10T07:37:39;99609.09;;;10.34;43.96
50292;BME280;36190;54.980;73.388;2023-04-10T07:40:09;99590.16;;;10.44;43.88
50292;BME280;36190;54.980;73.388;2023-04-10T07:42:37;99627.22;;;10.54;43.63
50292;BME280;36190;54.980;73.388;2023-04-10T07:45:07;99589.47;;;10.57;43.14
50292;BME280;36190;54.980;73.388;2023-04-10T07:47:35;99634.34;;;10.68;43.17
50292;BME280;36190;54.980;73.388;2023-04-10T07:50:03;99586.78;;;10.72;42.80
50292;BME280;36190;54.980;73.388;2023-04-10T07:52:30;99578.22;;;10.77;42.51
50292;BME280;36190;54.980;73.388;2023-04-10T07:55:00;99598.03;;;10.89;42.62
50292;BME280;36190;54.980;73.388;2023-04-10T07:57:28;99587.03;;;10.99;42.38
50292;BME280;36190;54.980;73.388;2023-04-10T07:59:56;99549.72;;;11.06;42.41
50292;BME280;36190;54.980;73.388;2023-04-10T08:02:25;99562.94;;;11.14;41.90
50292;BME280;36190;54.980;73.388;2023-04-10T08:04:53;99565.47;;;11.22;41.52
50292;BME280;36190;54.980;73.388;2023-04-10T08:07:20;99572.31;;;11.32;41.58
50292;BME280;36190;54.980;73.388;2023-04-10T08:09:48;99562.38;;;11.47;41.28
50292;BME280;36190;54.980;73.388;2023-04-10T08:12:15;99580.16;;;11.62;40.92
50292;BME280;36190;54.980;73.388;2023-04-10T08:14:43;99557.22;;;11.74;40.87
50292;BME280;36190;54.980;73.388;2023-04-10T08:17:10;99544.56;;;11.90;40.83
50292;BME280;36190;54.980;73.388;2023-04-10T08:19:41;99523.06;;;12.05;40.25
50292;BME280;36190;54.980;73.388;2023-04-10T08:22:08;99531.34;;;12.23;40.09
50292;BME280;36190;54.980;73.388;2023-04-10T08:24:36;99518.47;;;12.54;39.89
50292;BME280;36190;54.980;73.388;2023-04-10T08:27:03;99527.16;;;12.70;39.59
50292;BME280;36190;54.980;73.388;2023-04-10T08:29:31;99527.38;;;12.82;39.43
50292;BME280;36190;54.980;73.388;2023-04-10T08:31:58;99520.59;;;12.92;39.02
50292;BME280;36190;54.980;73.388;2023-04-10T08:34:26;99504.94;;;13.03;38.98
50292;BME280;36190;54.980;73.388;2023-04-10T08:36:56;99514.63;;;13.04;38.34
50292;BME280;36190;54.980;73.388;2023-04-10T08:39:23;99523.88;;;13.08;38.24
50292;BME280;36190;54.980;73.388;2023-04-10T08:41:51;99494.00;;;13.11;38.17
50292;BME280;36190;54.980;73.388;2023-04-10T08:44:20;99498.31;;;13.26;38.16
50292;BME280;36190;54.980;73.388;2023-04-10T08:46:47;99495.44;;;13.47;37.60
50292;BME280;36190;54.980;73.388;2023-04-10T08:49:21;99501.97;;;13.72;36.85
50292;BME280;36190;54.980;73.388;2023-04-10T08:51:57;99525.84;;;13.94;36.23
50292;BME280;36190;54.980;73.388;2023-04-10T08:54:26;99492.03;;;13.86;36.03
50292;BME280;36190;54.980;73.388;2023-04-10T08:56:55;99494.72;;;13.79;36.30
50292;BME280;36190;54.980;73.388;2023-04-10T08:59:23;99495.34;;;13.88;36.39
50292;BME280;36190;54.980;73.388;2023-04-10T09:01:50;99506.63;;;13.97;35.82
50292;BME280;36190;54.980;73.388;2023-04-10T09:04:19;99487.84;;;13.97;35.35
50292;BME280;36190;54.980;73.388;2023-04-10T09:06:47;99511.38;;;13.95;34.93
50292;BME280;36190;54.980;73.388;2023-04-10T09:09:15;99510.97;;;13.98;34.98
50292;BME280;36190;54.980;73.388;2023-04-10T09:11:56;99472.94;;;14.08;34.55
50292;BME280;36190;54.980;73.388;2023-04-10T09:14:27;99501.38;;;14.22;34.19
50292;BME280;36190;54.980;73.388;2023-04-10T09:17:11;99477.81;;;14.24;34.15
50292;BME280;36190;54.980;73.388;2023-04-10T09:19:39;99461.34;;;14.21;34.15
50292;BME280;36190;54.980;73.388;2023-04-10T09:22:06;99448.91;;;14.26;33.95
50292;BME280;36190;54.980;73.388;2023-04-10T09:24:40;99450.53;;;14.34;33.74
50292;BME280;36190;54.980;73.388;2023-04-10T09:27:08;99490.91;;;14.46;33.43
50292;BME280;36190;54.980;73.388;2023-04-10T09:29:41;99476.44;;;14.47;33.30
50292;BME280;36190;54.980;73.388;2023-04-10T09:32:09;99451.25;;;14.48;33.68
50292;BME280;36190;54.980;73.388;2023-04-10T09:34:51;99430.56;;;14.55;33.84
50292;BME280;36190;54.980;73.388;2023-04-10T09:37:19;99439.13;;;14.71;33.30
50292;BME280;36190;54.980;73.388;2023-04-10T09:39:49;99434.41;;;14.92;33.26
50292;BME280;36190;54.980;73.388;2023-04-10T09:42:29;99430.25;;;14.96;33.17
50292;BME280;36190;54.980;73.388;2023-04-10T09:44:57;99423.47;;;14.93;33.08
50292;BME280;36190;54.980;73.388;2023-04-10T09:47:25;99442.22;;;15.00;33.37
50292;BME280;36190;54.980;73.388;2023-04-10T09:49:54;99442.34;;;15.05;33.47
50292;BME280;36190;54.980;73.388;2023-04-10T09:52:23;99420.72;;;15.00;33.41
50292;BME280;36190;54.980;73.388;2023-04-10T09:54:53;99405.34;;;15.07;33.21
50292;BME280;36190;54.980;73.388;2023-04-10T09:57:22;99410.72;;;15.07;32.90
50292;BME280;36190;54.980;73.388;2023-04-10T09:59:52;99396.63;;;15.12;32.84
50292;BME280;36190;54.980;73.388;2023-04-10T10:02:22;99389.25;;;15.26;32.72
50292;BME280;36190;54.980;73.388;2023-04-10T10:04:50;99397.38;;;15.57;32.35
50292;BME280;36190;54.980;73.388;2023-04-10T10:07:19;99410.72;;;15.82;31.79
50292;BME280;36190;54.980;73.388;2023-04-10T10:09:47;99392.09;;;15.80;31.49
50292;BME280;36190;54.980;73.388;2023-04-10T10:12:21;99396.84;;;15.66;30.59
50292;BME280;36190;54.980;73.388;2023-04-10T10:14:53;99405.66;;;15.55;30.90
50292;BME280;36190;54.980;73.388;2023-04-10T10:17:28;99391.41;;;15.54;30.78
50292;BME280;36190;54.980;73.388;2023-04-10T10:20:01;99384.59;;;15.52;30.67
50292;BME280;36190;54.980;73.388;2023-04-10T10:22:29;99378.03;;;15.48;30.97
50292;BME280;36190;54.980;73.388;2023-04-10T10:24:59;99375.66;;;15.58;31.04
50292;BME280;36190;54.980;73.388;2023-04-10T10:27:30;99364.13;;;15.70;31.27
50292;BME280;36190;54.980;73.388;2023-04-10T10:29:59;99379.59;;;15.86;31.05
50292;BME280;36190;54.980;73.388;2023-04-10T10:32:26;99363.31;;;16.00;30.93
50292;BME280;36190;54.980;73.388;2023-04-10T10:34:54;99396.00;;;16.15;29.87
50292;BME280;36190;54.980;73.388;2023-04-10T10:37:23;99370.00;;;16.09;29.10
50292;BME280;36190;54.980;73.388;2023-04-10T10:40:00;99366.34;;;15.91;28.61
50292;BME280;36190;54.980;73.388;2023-04-10T10:42:35;99385.91;;;15.80;28.83
50292;BME280;36190;54.980;73.388;2023-04-10T10:45:10;99364.25;;;15.75;28.98
50292;BME280;36190;54.980;73.388;2023-04-10T10:47:43;99349.63;;;15.71;29.27
50292;BME280;36190;54.980;73.388;2023-04-10T10:50:12;99361.38;;;15.88;29.74
50292;BME280;36190;54.980;73.388;2023-04-10T10:52:42;99348.13;;;16.05;29.83
50292;BME280;36190;54.980;73.388;2023-04-10T10:55:32;99343.88;;;16.40;29.69
50292;BME280;36190;54.980;73.388;2023-04-10T10:58:08;99351.94;;;16.40;29.63
50292;BME280;36190;54.980;73.388;2023-04-10T11:01:04;99334.13;;;16.63;29.86
50292;BME280;36190;54.980;73.388;2023-04-10T11:03:35;99344.88;;;16.99;29.70
50292;BME280;36190;54.980;73.388;2023-04-10T11:06:04;99347.97;;;17.02;29.13
50292;BME280;36190;54.980;73.388;2023-04-10T11:08:37;99362.59;;;16.71;29.33
50292;BME280;36190;54.980;73.388;2023-04-10T11:11:10;99341.63;;;16.61;29.35
50292;BME280;36190;54.980;73.388;2023-04-10T11:16:40;99344.56;;;16.83;30.05
50292;BME280;36190;54.980;73.388;2023-04-10T11:19:09;99349.34;;;16.93;29.21
50292;BME280;36190;54.980;73.388;2023-04-10T11:22:03;99319.16;;;16.91;28.49
50292;BME280;36190;54.980;73.388;2023-04-10T11:25:00;99329.72;;;17.04;28.55
50292;BME280;36190;54.980;73.388;2023-04-10T11:27:43;99340.78;;;17.20;27.41
50292;BME280;36190;54.980;73.388;2023-04-10T11:30:28;99343.38;;;17.27;26.63
50292;BME280;36190;54.980;73.388;2023-04-10T11:32:56;99332.44;;;17.34;26.36
50292;BME280;36190;54.980;73.388;2023-04-10T11:35:25;99348.00;;;17.43;26.09
50292;BME280;36190;54.980;73.388;2023-04-10T11:38:09;99331.41;;;17.64;25.98
50292;BME280;36190;54.980;73.388;2023-04-10T11:40:52;99335.56;;;17.71;25.88
50292;BME280;36190;54.980;73.388;2023-04-10T11:43:20;99348.44;;;17.81;26.00
50292;BME280;36190;54.980;73.388;2023-04-10T11:45:49;99335.84;;;17.87;25.87
50292;BME280;36190;54.980;73.388;2023-04-10T11:48:17;99350.06;;;17.82;26.07
50292;BME280;36190;54.980;73.388;2023-04-10T11:50:44;99329.75;;;17.63;26.17
50292;BME280;36190;54.980;73.388;2023-04-10T11:53:18;99351.13;;;17.52;25.79
50292;BME280;36190;54.980;73.388;2023-04-10T11:55:46;99347.75;;;17.45;25.91
50292;BME280;36190;54.980;73.388;2023-04-10T11:58:24;99326.78;;;17.47;25.85
50292;BME280;36190;54.980;73.388;2023-04-10T12:01:01;99351.94;;;17.53;25.57
50292;BME280;36190;54.980;73.388;2023-04-10T12:03:33;99324.25;;;17.57;25.38
50292;BME280;36190;54.980;73.388;2023-04-10T12:06:01;99335.34;;;17.73;25.14
50292;BME280;36190;54.980;73.388;2023-04-10T12:08:32;99330.78;;;17.91;25.22
50292;BME280;36190;54.980;73.388;2023-04-10T12:11:00;99331.56;;;18.03;25.02
50292;BME280;36190;54.980;73.388;2023-04-10T12:13:29;99321.16;;;17.95;24.94
50292;BME280;36190;54.980;73.388;2023-04-10T12:16:00;99315.34;;;17.86;24.93
50292;BME280;36190;54.980;73.388;2023-04-10T12:18:28;99312.13;;;17.89;24.86
50292;BME280;36190;54.980;73.388;2023-04-10T12:20:56;99312.97;;;17.90;24.82
50292;BME280;36190;54.980;73.388;2023-04-10T12:23:24;99315.56;;;17.84;24.67
50292;BME280;36190;54.980;73.388;2023-04-10T12:25:55;99322.41;;;17.75;25.04
50292;BME280;36190;54.980;73.388;2023-04-10T12:28:32;99300.38;;;17.78;25.07
50292;BME280;36190;54.980;73.388;2023-04-10T12:31:02;99318.88;;;17.86;25.21
50292;BME280;36190;54.980;73.388;2023-04-10T12:33:29;99305.78;;;17.95;25.17
50292;BME280;36190;54.980;73.388;2023-04-10T12:35:57;99303.38;;;18.11;24.90
50292;BME280;36190;54.980;73.388;2023-04-10T12:38:38;99301.56;;;18.17;24.82
50292;BME280;36190;54.980;73.388;2023-04-10T12:41:08;99297.78;;;18.00;24.73
50292;BME280;36190;54.980;73.388;2023-04-10T12:43:37;99265.47;;;17.89;24.78
50292;BME280;36190;54.980;73.388;2023-04-10T12:46:07;99294.53;;;18.16;24.61
50292;BME280;36190;54.980;73.388;2023-04-10T12:48:35;99287.16;;;18.11;24.35
50292;BME280;36190;54.980;73.388;2023-04-10T12:51:03;99298.31;;;17.85;24.47
50292;BME280;36190;54.980;73.388;2023-04-10T12:53:42;99302.28;;;17.66;24.68
50292;BME280;36190;54.980;73.388;2023-04-10T12:56:10;99313.84;;;17.49;24.78
50292;BME280;36190;54.980;73.388;2023-04-10T12:58:38;99303.50;;;17.29;24.89
50292;BME280;36190;54.980;73.388;2023-04-10T13:01:08;99286.44;;;17.11;25.28
50292;BME280;36190;54.980;73.388;2023-04-10T13:03:36;99285.16;;;17.14;25.33
50292;BME280;36190;54.980;73.388;2023-04-10T13:06:05;99258.94;;;16.97;25.46
50292;BME280;36190;54.980;73.388;2023-04-10T13:08:33;99274.00;;;17.22;25.50